createdAt,value
2022-09-14T00:04:06.992Z,11.29
2022-09-14T00:09:13.560Z,11.19
2022-09-14T00:14:18.021Z,11.08
2022-09-14T00:19:22.333Z,11.11
2022-09-14T00:24:28.696Z,11.01
2022-09-14T00:29:32.732Z,10.98
2022-09-14T00:34:34.516Z,10.99
2022-09-14T00:39:36.477Z,10.96
2022-09-14T00:45:06.550Z,10.94
2022-09-14T00:50:10.075Z,10.89
2022-09-14T00:55:15.926Z,10.93
2022-09-14T01:00:25.106Z,10.85
2022-09-14T01:05:36.724Z,10.81
2022-09-14T01:11:00.329Z,10.80
2022-09-14T01:16:16.513Z,10.80
2022-09-14T01:21:24.093Z,10.73
2022-09-14T01:27:23.028Z,10.63
2022-09-14T01:32:30.710Z,10.55
2022-09-14T01:37:38.383Z,10.53
2022-09-14T01:42:42.326Z,10.44
2022-09-14T01:47:48.882Z,10.39
2022-09-14T01:52:55.549Z,10.42
2022-09-14T01:58:02.285Z,10.34
2022-09-14T02:03:12.255Z,10.38
2022-09-14T02:08:14.899Z,10.44
2022-09-14T02:13:17.459Z,10.42
2022-09-14T02:18:22.011Z,10.31
2022-09-14T02:23:24.620Z,10.22
2022-09-14T02:28:26.425Z,10.11
2022-09-14T02:33:40.234Z,10.17
2022-09-14T02:38:52.985Z,10.05
2022-09-14T02:44:03.080Z,10.01
2022-09-14T02:49:11.691Z,9.89
2022-09-14T02:54:17.119Z,9.92
2022-09-14T02:59:18.899Z,9.88
2022-09-14T03:04:22.389Z,9.90
2022-09-14T03:09:24.463Z,9.91
2022-09-14T03:14:26.566Z,9.80
2022-09-14T03:19:29.985Z,9.85
2022-09-14T03:24:32.001Z,9.79
2022-09-14T03:29:34.049Z,9.75
2022-09-14T03:34:37.640Z,9.72
2022-09-14T03:39:39.555Z,9.68
2022-09-14T03:44:41.530Z,9.62
2022-09-14T03:49:44.864Z,9.60
2022-09-14T03:54:46.776Z,9.49
2022-09-14T03:59:48.720Z,9.44
2022-09-14T04:04:51.730Z,9.39
2022-09-14T04:09:53.464Z,9.33
2022-09-14T04:14:55.056Z,9.28
2022-09-14T04:19:58.434Z,9.29
2022-09-14T04:25:00.664Z,9.34
2022-09-14T04:30:02.327Z,9.32
2022-09-14T04:35:05.791Z,9.40
2022-09-14T04:40:08.294Z,9.34
2022-09-14T04:45:11.310Z,9.36
2022-09-14T04:50:14.990Z,9.38
2022-09-14T04:55:17.239Z,9.52
2022-09-14T05:00:19.471Z,9.64
2022-09-14T05:05:22.401Z,9.77
2022-09-14T05:10:24.401Z,9.83
2022-09-14T05:15:25.972Z,9.93
2022-09-14T05:20:29.339Z,10.10
2022-09-14T05:25:31.207Z,10.31
2022-09-14T05:30:32.991Z,10.47
2022-09-14T05:35:36.275Z,10.63
2022-09-14T05:40:39.013Z,10.88
2022-09-14T05:45:40.702Z,11.03
2022-09-14T05:50:44.421Z,11.18
2022-09-14T05:55:46.374Z,11.43
2022-09-14T06:00:48.013Z,11.62
2022-09-14T06:05:51.244Z,11.89
2022-09-14T06:10:53.029Z,12.06
2022-09-14T06:15:55.323Z,12.19
2022-09-14T06:20:58.977Z,12.34
2022-09-14T06:26:02.845Z,12.51
2022-09-14T06:31:14.898Z,12.67
2022-09-14T06:36:22.963Z,12.94
2022-09-14T06:41:26.860Z,13.28
2022-09-14T06:46:30.794Z,13.60
2022-09-14T06:51:36.407Z,14.04
2022-09-14T06:56:40.192Z,14.12
2022-09-14T07:01:42.655Z,14.41
2022-09-14T07:06:47.971Z,14.89
2022-09-14T07:11:49.625Z,15.16
2022-09-14T07:16:51.624Z,15.27
2022-09-14T07:21:54.992Z,15.26
2022-09-14T07:26:57.133Z,15.48
2022-09-14T07:31:59.058Z,15.76
2022-09-14T07:37:02.034Z,15.72
2022-09-14T07:42:04.165Z,15.91
2022-09-14T07:47:05.860Z,15.99
2022-09-14T07:52:08.846Z,16.43
2022-09-14T07:57:10.511Z,16.60
2022-09-14T08:02:12.625Z,16.76
2022-09-14T08:07:15.621Z,16.60
2022-09-14T08:12:17.295Z,16.97
2022-09-14T08:17:19.387Z,16.90
2022-09-14T08:22:22.435Z,17.10
2022-09-14T08:27:24.703Z,17.38
2022-09-14T08:32:26.823Z,17.96
2022-09-14T08:37:29.795Z,17.79
2022-09-14T08:42:32.043Z,18.21
2022-09-14T08:47:35.772Z,18.32
2022-09-14T08:52:41.663Z,18.95
2022-09-14T08:57:48.101Z,18.91
2022-09-14T09:03:11.238Z,18.90
2022-09-14T09:08:21.262Z,18.75
2022-09-14T09:13:26.447Z,18.95
2022-09-14T09:18:36.296Z,18.56
2022-09-14T09:23:41.057Z,18.64
2022-09-14T09:28:46.331Z,19.24
2022-09-14T09:33:50.498Z,19.45
2022-09-14T09:38:53.927Z,19.73
2022-09-14T09:44:01.174Z,19.91
2022-09-14T09:49:14.230Z,19.24
2022-09-14T09:54:27.585Z,19.21
2022-09-14T09:59:32.784Z,18.87
2022-09-14T10:04:34.883Z,19.19
2022-09-14T10:09:37.962Z,19.21
2022-09-14T10:14:40.638Z,19.31
2022-09-14T10:19:47.252Z,19.64
2022-09-14T10:24:56.688Z,20.42
2022-09-14T10:30:02.672Z,20.58
2022-09-14T10:35:12.044Z,21.39
2022-09-14T10:40:19.608Z,21.84
2022-09-14T10:45:28.119Z,20.80
2022-09-14T10:50:43.911Z,20.59
2022-09-14T10:55:57.686Z,23.57
2022-09-14T11:01:11.631Z,22.93
2022-09-14T11:06:26.072Z,21.78
2022-09-14T11:11:41.345Z,20.69
2022-09-14T11:16:56.620Z,21.25
2022-09-14T11:22:06.069Z,20.96
2022-09-14T11:27:16.011Z,20.25
2022-09-14T11:32:22.562Z,19.59
2022-09-14T11:37:31.244Z,19.74
2022-09-14T11:42:40.621Z,19.84
2022-09-14T11:47:48.129Z,21.23
2022-09-14T11:53:04.614Z,20.77
2022-09-14T11:58:18.437Z,20.52
2022-09-14T12:03:22.414Z,20.16
2022-09-14T12:08:37.792Z,20.15
2022-09-14T12:13:41.150Z,19.93
2022-09-14T12:18:46.178Z,20.02
2022-09-14T12:23:49.315Z,20.11
2022-09-14T12:28:55.433Z,19.84
2022-09-14T12:34:21.975Z,19.89
2022-09-14T12:39:25.467Z,20.07
2022-09-14T12:44:38.185Z,20.15
2022-09-14T12:49:39.919Z,20.76
2022-09-14T12:54:54.829Z,20.39
2022-09-14T13:00:05.886Z,20.15
2022-09-14T13:05:14.712Z,20.34
2022-09-14T13:10:20.769Z,19.92
2022-09-14T13:15:27.018Z,19.51
2022-09-14T13:20:30.716Z,19.74
2022-09-14T13:25:35.151Z,19.65
2022-09-14T13:30:40.068Z,19.46
2022-09-14T13:35:47.172Z,19.15
2022-09-14T13:40:51.294Z,19.04
2022-09-14T13:45:55.393Z,19.10
2022-09-14T13:50:58.186Z,19.08
2022-09-14T13:56:00.459Z,19.02
2022-09-14T14:01:04.774Z,19.02
2022-09-14T14:06:23.967Z,18.79
2022-09-14T14:11:33.444Z,19.04
2022-09-14T14:16:37.135Z,18.88
2022-09-14T14:21:40.019Z,18.91
2022-09-14T14:26:48.780Z,18.84
2022-09-14T14:31:55.033Z,18.52
2022-09-14T14:36:57.930Z,18.37
2022-09-14T14:42:01.832Z,18.43
2022-09-14T14:47:06.825Z,18.26
2022-09-14T14:52:10.399Z,18.09
2022-09-14T14:57:12.756Z,17.99
2022-09-14T15:02:16.313Z,18.00
2022-09-14T15:07:18.385Z,17.86
2022-09-14T15:12:20.732Z,17.83
2022-09-14T15:17:24.138Z,17.77
2022-09-14T15:22:25.856Z,17.63
2022-09-14T15:27:27.704Z,17.52
2022-09-14T15:32:31.244Z,17.43
2022-09-14T15:37:33.462Z,17.35
2022-09-14T15:42:35.703Z,17.37
2022-09-14T15:47:42.552Z,17.44
2022-09-14T15:52:44.591Z,17.43
2022-09-14T15:57:46.903Z,17.41
2022-09-14T16:02:50.337Z,17.36
2022-09-14T16:07:53.423Z,17.22
2022-09-14T16:12:56.145Z,17.16
2022-09-14T16:17:59.323Z,17.06
2022-09-14T16:23:01.995Z,16.88
2022-09-14T16:28:04.186Z,16.83
2022-09-14T16:33:07.659Z,16.76
2022-09-14T16:38:09.668Z,16.69
2022-09-14T16:43:11.377Z,16.67
2022-09-14T16:48:14.961Z,16.64
2022-09-14T16:53:18.230Z,16.58
2022-09-14T16:58:19.894Z,16.52
2022-09-14T17:03:25.250Z,16.46
2022-09-14T17:08:30.160Z,16.36
2022-09-14T17:13:32.808Z,16.29
2022-09-14T17:18:38.247Z,16.28
2022-09-14T17:23:41.020Z,16.16
2022-09-14T17:28:42.707Z,16.09
2022-09-14T17:33:45.977Z,15.94
2022-09-14T17:38:48.984Z,15.84
2022-09-14T17:43:52.630Z,15.69
2022-09-14T17:48:57.339Z,15.67
2022-09-14T17:54:01.464Z,15.80
2022-09-14T17:59:05.728Z,16.22
2022-09-14T18:04:11.337Z,16.47
2022-09-14T18:09:14.944Z,16.62
2022-09-14T18:14:17.872Z,16.91
2022-09-14T18:19:20.998Z,16.89
2022-09-14T18:24:22.616Z,16.87
2022-09-14T18:29:24.427Z,16.68
2022-09-14T18:34:27.726Z,16.67
2022-09-14T18:39:29.587Z,16.74
2022-09-14T18:44:31.341Z,16.82
2022-09-14T18:49:35.098Z,16.63
2022-09-14T18:54:36.964Z,16.51
2022-09-14T18:59:38.723Z,16.47
2022-09-14T19:04:42.570Z,16.40
2022-09-14T19:09:44.498Z,16.46
2022-09-14T19:14:46.666Z,16.47
2022-09-14T19:19:50.383Z,16.23
2022-09-14T19:24:52.705Z,16.12
2022-09-14T19:29:55.197Z,16.07
2022-09-14T19:34:58.748Z,16.08
2022-09-14T19:40:01.100Z,15.87
2022-09-14T19:45:03.345Z,15.64
2022-09-14T19:50:08.175Z,15.62
2022-09-14T19:55:09.892Z,15.65
2022-09-14T20:00:17.480Z,15.54
2022-09-14T20:05:21.107Z,15.28
2022-09-14T20:10:22.733Z,15.11
2022-09-14T20:15:24.803Z,15.00
2022-09-14T20:20:28.181Z,14.77
2022-09-14T20:25:29.859Z,14.65
2022-09-14T20:30:32.023Z,14.43
2022-09-14T20:35:35.163Z,14.50
2022-09-14T20:40:37.108Z,14.39
2022-09-14T20:45:39.131Z,14.38
2022-09-14T20:50:51.599Z,14.31
2022-09-14T20:55:54.139Z,14.10
2022-09-14T21:01:00.287Z,13.97
2022-09-14T21:06:05.248Z,13.86
2022-09-14T21:11:08.850Z,13.91
2022-09-14T21:16:14.205Z,13.94
2022-09-14T21:21:19.062Z,13.99
2022-09-14T21:26:21.129Z,13.83
2022-09-14T21:31:23.985Z,13.67
2022-09-14T21:36:28.916Z,13.64
2022-09-14T21:41:32.013Z,13.73
2022-09-14T21:46:34.610Z,13.63
2022-09-14T21:51:38.107Z,13.67
2022-09-14T21:56:43.290Z,13.53
2022-09-14T22:01:45.773Z,13.48
2022-09-14T22:06:50.118Z,13.34
2022-09-14T22:11:52.161Z,13.40
2022-09-14T22:16:54.036Z,13.35
2022-09-14T22:21:57.545Z,13.27
2022-09-14T22:26:59.639Z,13.20
2022-09-14T22:32:01.998Z,13.26
2022-09-14T22:37:06.960Z,13.25
2022-09-14T22:42:10.966Z,13.28
2022-09-14T22:47:15.085Z,13.08
2022-09-14T22:52:21.456Z,13.12
2022-09-14T22:57:24.780Z,13.04
2022-09-14T23:02:27.875Z,13.00
2022-09-14T23:07:32.735Z,12.97
2022-09-14T23:12:36.991Z,12.93
2022-09-14T23:17:39.967Z,12.87
2022-09-14T23:22:44.661Z,12.87
2022-09-14T23:27:47.793Z,12.91
2022-09-14T23:32:53.912Z,12.83
2022-09-14T23:37:59.386Z,12.72
2022-09-14T23:43:03.915Z,12.66
2022-09-14T23:48:07.939Z,12.60
2022-09-14T23:53:13.818Z,12.58
2022-09-14T23:58:16.125Z,12.51
